sensor_id;sensor_type;location;lat;lon;timestamp;P1;durP1;ratioP1;P2;durP2;ratioP2
13847;SDS011;6994;49.752;6.094;2024-03-23T00:54:31;16.42;;;8.95;;
13847;SDS011;6994;49.752;6.094;2024-03-23T00:56:58;11.70;;;7.53;;
13847;SDS011;6994;49.752;6.094;2024-03-23T00:59:25;10.05;;;6.93;;
13847;SDS011;6994;49.752;6.094;2024-03-23T01:01:55;11.20;;;7.68;;
13847;SDS011;6994;49.752;6.094;2024-03-23T01:04:22;10.82;;;7.68;;
13847;SDS011;6994;49.752;6.094;2024-03-23T01:06:50;12.05;;;7.65;;
13847;SDS011;6994;49.752;6.094;2024-03-23T01:09:17;11.52;;;7.18;;
13847;SDS011;6994;49.752;6.094;2024-03-23T01:11:44;9.32;;;7.28;;
13847;SDS011;6994;49.752;6.094;2024-03-23T01:14:11;10.73;;;7.07;;
13847;SDS011;6994;49.752;6.094;2024-03-23T01:16:38;12.13;;;6.85;;
13847;SDS011;6994;49.752;6.094;2024-03-23T01:19:06;10.48;;;6.43;;
13847;SDS011;6994;49.752;6.094;2024-03-23T01:21:33;9.82;;;7.32;;
13847;SDS011;6994;49.752;6.094;2024-03-23T01:24:01;10.18;;;6.55;;
13847;SDS011;6994;49.752;6.094;2024-03-23T01:26:29;7.32;;;6.03;;
13847;SDS011;6994;49.752;6.094;2024-03-23T01:28:57;12.77;;;6.03;;
13847;SDS011;6994;49.752;6.094;2024-03-23T01:31:25;5.78;;;4.25;;
13847;SDS011;6994;49.752;6.094;2024-03-23T01:33:52;5.60;;;3.22;;
13847;SDS011;6994;49.752;6.094;2024-03-23T01:36:19;2.55;;;1.92;;
13847;SDS011;6994;49.752;6.094;2024-03-23T01:38:47;2.75;;;2.12;;
13847;SDS011;6994;49.752;6.094;2024-03-23T01:41:14;4.22;;;2.50;;
13847;SDS011;6994;49.752;6.094;2024-03-23T01:43:41;1.60;;;1.35;;
13847;SDS011;6994;49.752;6.094;2024-03-23T01:46:09;0.75;;;0.60;;
13847;SDS011;6994;49.752;6.094;2024-03-23T01:48:36;0.65;;;0.45;;
13847;SDS011;6994;49.752;6.094;2024-03-23T01:51:03;0.77;;;0.43;;
13847;SDS011;6994;49.752;6.094;2024-03-23T01:53:30;0.30;;;0.30;;
13847;SDS011;6994;49.752;6.094;2024-03-23T01:55:57;0.20;;;0.20;;
13847;SDS011;6994;49.752;6.094;2024-03-23T01:58:25;0.13;;;0.13;;
13847;SDS011;6994;49.752;6.094;2024-03-23T02:00:52;0.60;;;0.32;;
13847;SDS011;6994;49.752;6.094;2024-03-23T02:03:25;0.30;;;0.30;;
13847;SDS011;6994;49.752;6.094;2024-03-23T02:05:53;0.30;;;0.30;;
13847;SDS011;6994;49.752;6.094;2024-03-23T02:10:53;0.40;;;0.40;;
13847;SDS011;6994;49.752;6.094;2024-03-23T02:13:20;0.50;;;0.40;;
13847;SDS011;6994;49.752;6.094;2024-03-23T02:15:47;0.70;;;0.30;;
13847;SDS011;6994;49.752;6.094;2024-03-23T02:18:15;0.70;;;0.30;;
13847;SDS011;6994;49.752;6.094;2024-03-23T02:20:42;0.40;;;0.40;;
13847;SDS011;6994;49.752;6.094;2024-03-23T02:23:15;0.40;;;0.30;;
13847;SDS011;6994;49.752;6.094;2024-03-23T02:25:42;1.40;;;0.30;;
13847;SDS011;6994;49.752;6.094;2024-03-23T02:28:09;0.57;;;0.32;;
13847;SDS011;6994;49.752;6.094;2024-03-23T02:30:37;0.60;;;0.37;;
13847;SDS011;6994;49.752;6.094;2024-03-23T02:33:04;0.30;;;0.30;;
13847;SDS011;6994;49.752;6.094;2024-03-23T02:35:31;0.25;;;0.25;;
13847;SDS011;6994;49.752;6.094;2024-03-23T02:37:58;0.37;;;0.30;;
13847;SDS011;6994;49.752;6.094;2024-03-23T02:40:25;0.60;;;0.50;;
13847;SDS011;6994;49.752;6.094;2024-03-23T02:42:52;0.95;;;0.50;;
13847;SDS011;6994;49.752;6.094;2024-03-23T02:45:20;0.68;;;0.68;;
13847;SDS011;6994;49.752;6.094;2024-03-23T02:47:48;1.15;;;0.30;;
13847;SDS011;6994;49.752;6.094;2024-03-23T02:50:16;0.70;;;0.37;;
13847;SDS011;6994;49.752;6.094;2024-03-23T02:52:44;0.50;;;0.50;;
13847;SDS011;6994;49.752;6.094;2024-03-23T02:55:12;2.17;;;0.90;;
13847;SDS011;6994;49.752;6.094;2024-03-23T02:57:40;0.98;;;0.73;;
13847;SDS011;6994;49.752;6.094;2024-03-23T03:00:08;0.75;;;0.50;;
13847;SDS011;6994;49.752;6.094;2024-03-23T03:02:35;0.65;;;0.57;;
13847;SDS011;6994;49.752;6.094;2024-03-23T03:05:04;1.00;;;0.75;;
13847;SDS011;6994;49.752;6.094;2024-03-23T03:07:31;1.80;;;1.33;;
13847;SDS011;6994;49.752;6.094;2024-03-23T03:09:59;1.10;;;0.90;;
13847;SDS011;6994;49.752;6.094;2024-03-23T03:12:27;1.00;;;0.77;;
13847;SDS011;6994;49.752;6.094;2024-03-23T03:14:55;0.60;;;0.60;;
13847;SDS011;6994;49.752;6.094;2024-03-23T03:17:22;0.98;;;0.93;;
13847;SDS011;6994;49.752;6.094;2024-03-23T03:19:49;0.90;;;0.90;;
13847;SDS011;6994;49.752;6.094;2024-03-23T03:22:16;0.82;;;0.80;;
13847;SDS011;6994;49.752;6.094;2024-03-23T03:24:43;0.55;;;0.55;;
13847;SDS011;6994;49.752;6.094;2024-03-23T03:27:11;0.50;;;0.50;;
13847;SDS011;6994;49.752;6.094;2024-03-23T03:29:38;0.60;;;0.50;;
13847;SDS011;6994;49.752;6.094;2024-03-23T03:32:05;0.60;;;0.60;;
13847;SDS011;6994;49.752;6.094;2024-03-23T03:34:32;0.30;;;0.30;;
13847;SDS011;6994;49.752;6.094;2024-03-23T03:37:00;0.55;;;0.35;;
13847;SDS011;6994;49.752;6.094;2024-03-23T03:39:28;0.32;;;0.30;;
13847;SDS011;6994;49.752;6.094;2024-03-23T03:41:56;0.32;;;0.32;;
13847;SDS011;6994;49.752;6.094;2024-03-23T03:44:23;0.80;;;0.40;;
13847;SDS011;6994;49.752;6.094;2024-03-23T03:46:51;0.30;;;0.30;;
13847;SDS011;6994;49.752;6.094;2024-03-23T03:49:18;0.30;;;0.30;;
13847;SDS011;6994;49.752;6.094;2024-03-23T03:51:45;2.33;;;0.43;;
13847;SDS011;6994;49.752;6.094;2024-03-23T03:54:12;0.47;;;0.47;;
13847;SDS011;6994;49.752;6.094;2024-03-23T03:56:39;0.30;;;0.30;;
13847;SDS011;6994;49.752;6.094;2024-03-23T03:59:06;0.47;;;0.47;;
13847;SDS011;6994;49.752;6.094;2024-03-23T04:01:34;0.70;;;0.57;;
13847;SDS011;6994;49.752;6.094;2024-03-23T04:04:01;1.00;;;0.55;;
13847;SDS011;6994;49.752;6.094;2024-03-23T04:06:28;0.55;;;0.43;;
13847;SDS011;6994;49.752;6.094;2024-03-23T04:08:55;0.60;;;0.57;;
13847;SDS011;6994;49.752;6.094;2024-03-23T04:11:22;0.70;;;0.70;;
13847;SDS011;6994;49.752;6.094;2024-03-23T04:13:50;0.70;;;0.70;;
13847;SDS011;6994;49.752;6.094;2024-03-23T04:16:26;1.05;;;0.70;;
13847;SDS011;6994;49.752;6.094;2024-03-23T04:18:53;2.45;;;1.15;;
13847;SDS011;6994;49.752;6.094;2024-03-23T04:21:24;1.52;;;1.10;;
13847;SDS011;6994;49.752;6.094;2024-03-23T04:23:52;1.02;;;0.77;;
13847;SDS011;6994;49.752;6.094;2024-03-23T04:26:20;3.25;;;1.77;;
13847;SDS011;6994;49.752;6.094;2024-03-23T04:28:48;2.22;;;1.15;;
13847;SDS011;6994;49.752;6.094;2024-03-23T04:31:15;4.10;;;1.45;;
13847;SDS011;6994;49.752;6.094;2024-03-23T04:33:42;2.45;;;0.90;;
13847;SDS011;6994;49.752;6.094;2024-03-23T04:36:09;4.60;;;0.75;;
13847;SDS011;6994;49.752;6.094;2024-03-23T04:38:37;1.58;;;1.05;;
13847;SDS011;6994;49.752;6.094;2024-03-23T04:41:04;3.42;;;1.05;;
13847;SDS011;6994;49.752;6.094;2024-03-23T04:43:31;5.35;;;1.08;;
13847;SDS011;6994;49.752;6.094;2024-03-23T04:45:58;2.05;;;1.20;;
13847;SDS011;6994;49.752;6.094;2024-03-23T04:48:25;2.25;;;1.20;;
13847;SDS011;6994;49.752;6.094;2024-03-23T04:50:55;2.05;;;1.12;;
13847;SDS011;6994;49.752;6.094;2024-03-23T04:53:23;3.20;;;1.00;;
13847;SDS011;6994;49.752;6.094;2024-03-23T04:55:50;1.17;;;1.08;;
13847;SDS011;6994;49.752;6.094;2024-03-23T04:58:17;2.75;;;1.20;;
13847;SDS011;6994;49.752;6.094;2024-03-23T05:00:44;1.70;;;1.02;;
13847;SDS011;6994;49.752;6.094;2024-03-23T05:03:11;3.40;;;1.35;;
13847;SDS011;6994;49.752;6.094;2024-03-23T05:05:39;5.50;;;1.45;;
13847;SDS011;6994;49.752;6.094;2024-03-23T05:08:06;2.75;;;1.27;;
13847;SDS011;6994;49.752;6.094;2024-03-23T05:10:33;4.53;;;1.20;;
13847;SDS011;6994;49.752;6.094;2024-03-23T05:13:01;2.33;;;1.15;;
13847;SDS011;6994;49.752;6.094;2024-03-23T05:15:29;4.25;;;1.33;;
13847;SDS011;6994;49.752;6.094;2024-03-23T05:17:57;4.47;;;1.40;;
13847;SDS011;6994;49.752;6.094;2024-03-23T05:20:25;3.47;;;1.50;;
13847;SDS011;6994;49.752;6.094;2024-03-23T05:22:52;3.75;;;1.75;;
13847;SDS011;6994;49.752;6.094;2024-03-23T05:25:19;5.37;;;1.83;;
13847;SDS011;6994;49.752;6.094;2024-03-23T05:27:47;2.67;;;1.85;;
13847;SDS011;6994;49.752;6.094;2024-03-23T05:30:14;7.93;;;2.00;;
13847;SDS011;6994;49.752;6.094;2024-03-23T05:32:41;2.97;;;1.95;;
13847;SDS011;6994;49.752;6.094;2024-03-23T05:35:09;3.85;;;1.75;;
13847;SDS011;6994;49.752;6.094;2024-03-23T05:37:35;3.90;;;1.67;;
13847;SDS011;6994;49.752;6.094;2024-03-23T05:40:03;6.30;;;2.30;;
13847;SDS011;6994;49.752;6.094;2024-03-23T05:42:31;6.28;;;2.30;;
13847;SDS011;6994;49.752;6.094;2024-03-23T05:44:59;7.10;;;1.90;;
13847;SDS011;6994;49.752;6.094;2024-03-23T05:47:26;2.35;;;1.80;;
13847;SDS011;6994;49.752;6.094;2024-03-23T05:49:53;11.65;;;2.62;;
13847;SDS011;6994;49.752;6.094;2024-03-23T05:52:21;6.57;;;2.60;;
13847;SDS011;6994;49.752;6.094;2024-03-23T05:54:48;5.53;;;2.42;;
13847;SDS011;6994;49.752;6.094;2024-03-23T05:57:15;3.10;;;2.40;;
13847;SDS011;6994;49.752;6.094;2024-03-23T05:59:43;3.80;;;2.33;;
13847;SDS011;6994;49.752;6.094;2024-03-23T06:02:10;8.40;;;2.80;;
13847;SDS011;6994;49.752;6.094;2024-03-23T06:04:37;7.53;;;2.72;;
13847;SDS011;6994;49.752;6.094;2024-03-23T06:07:04;4.87;;;3.35;;
13847;SDS011;6994;49.752;6.094;2024-03-23T06:09:34;5.35;;;4.10;;
13847;SDS011;6994;49.752;6.094;2024-03-23T06:12:01;5.28;;;2.78;;
13847;SDS011;6994;49.752;6.094;2024-03-23T06:14:28;9.27;;;5.35;;
13847;SDS011;6994;49.752;6.094;2024-03-23T06:16:56;9.95;;;4.70;;
13847;SDS011;6994;49.752;6.094;2024-03-23T06:19:23;7.82;;;5.28;;
13847;SDS011;6994;49.752;6.094;2024-03-23T06:21:50;7.07;;;4.37;;
13847;SDS011;6994;49.752;6.094;2024-03-23T06:24:17;10.75;;;6.60;;
13847;SDS011;6994;49.752;6.094;2024-03-23T06:26:44;10.43;;;5.43;;
13847;SDS011;6994;49.752;6.094;2024-03-23T06:29:12;11.05;;;5.60;;
13847;SDS011;6994;49.752;6.094;2024-03-23T06:31:39;8.23;;;4.90;;
13847;SDS011;6994;49.752;6.094;2024-03-23T06:34:06;12.52;;;5.90;;
13847;SDS011;6994;49.752;6.094;2024-03-23T06:36:33;11.07;;;4.45;;
13847;SDS011;6994;49.752;6.094;2024-03-23T06:39:00;7.45;;;4.70;;
13847;SDS011;6994;49.752;6.094;2024-03-23T06:41:28;7.87;;;4.35;;
13847;SDS011;6994;49.752;6.094;2024-03-23T06:43:55;8.02;;;3.83;;
13847;SDS011;6994;49.752;6.094;2024-03-23T06:46:22;10.18;;;4.03;;
13847;SDS011;6994;49.752;6.094;2024-03-23T06:48:49;12.73;;;5.45;;
13847;SDS011;6994;49.752;6.094;2024-03-23T06:51:16;6.85;;;4.68;;
13847;SDS011;6994;49.752;6.094;2024-03-23T06:53:44;7.55;;;4.50;;
13847;SDS011;6994;49.752;6.094;2024-03-23T06:56:11;6.07;;;3.83;;
13847;SDS011;6994;49.752;6.094;2024-03-23T06:58:38;8.65;;;4.70;;
13847;SDS011;6994;49.752;6.094;2024-03-23T07:01:05;10.30;;;5.30;;
13847;SDS011;6994;49.752;6.094;2024-03-23T07:03:32;9.65;;;5.55;;
13847;SDS011;6994;49.752;6.094;2024-03-23T07:06:00;8.75;;;4.28;;
13847;SDS011;6994;49.752;6.094;2024-03-23T07:08:27;7.15;;;3.95;;
13847;SDS011;6994;49.752;6.094;2024-03-23T07:10:54;10.38;;;5.07;;
13847;SDS011;6994;49.752;6.094;2024-03-23T07:13:21;6.72;;;4.60;;
13847;SDS011;6994;49.752;6.094;2024-03-23T07:15:52;11.27;;;5.12;;
13847;SDS011;6994;49.752;6.094;2024-03-23T07:18:19;7.22;;;4.50;;
13847;SDS011;6994;49.752;6.094;2024-03-23T07:20:57;12.60;;;4.82;;
13847;SDS011;6994;49.752;6.094;2024-03-23T07:23:23;6.82;;;4.35;;
13847;SDS011;6994;49.752;6.094;2024-03-23T07:26:03;6.45;;;3.65;;
13847;SDS011;6994;49.752;6.094;2024-03-23T07:28:32;9.35;;;5.22;;
13847;SDS011;6994;49.752;6.094;2024-03-23T07:31:04;9.30;;;5.15;;
13847;SDS011;6994;49.752;6.094;2024-03-23T07:33:31;9.82;;;4.82;;
13847;SDS011;6994;49.752;6.094;2024-03-23T07:35:59;13.35;;;4.90;;
13847;SDS011;6994;49.752;6.094;2024-03-23T07:38:27;16.67;;;5.47;;
13847;SDS011;6994;49.752;6.094;2024-03-23T07:41:38;7.45;;;5.25;;
13847;SDS011;6994;49.752;6.094;2024-03-23T07:43:34;10.55;;;5.53;;
13847;SDS011;6994;49.752;6.094;2024-03-23T07:46:01;12.00;;;7.10;;
13847;SDS011;6994;49.752;6.094;2024-03-23T07:48:28;10.38;;;4.32;;
13847;SDS011;6994;49.752;6.094;2024-03-23T07:50:57;10.98;;;5.00;;
13847;SDS011;6994;49.752;6.094;2024-03-23T07:53:28;11.15;;;5.05;;
13847;SDS011;6994;49.752;6.094;2024-03-23T07:55:57;10.48;;;4.62;;
13847;SDS011;6994;49.752;6.094;2024-03-23T07:58:24;8.45;;;4.90;;
13847;SDS011;6994;49.752;6.094;2024-03-23T08:00:52;8.73;;;4.55;;
13847;SDS011;6994;49.752;6.094;2024-03-23T08:03:22;8.07;;;3.92;;
13847;SDS011;6994;49.752;6.094;2024-03-23T08:05:50;10.88;;;4.32;;
13847;SDS011;6994;49.752;6.094;2024-03-23T08:08:18;5.95;;;3.42;;
13847;SDS011;6994;49.752;6.094;2024-03-23T08:10:51;4.57;;;3.20;;
13847;SDS011;6994;49.752;6.094;2024-03-23T08:13:15;6.53;;;3.53;;
13847;SDS011;6994;49.752;6.094;2024-03-23T08:15:42;10.13;;;5.10;;
13847;SDS011;6994;49.752;6.094;2024-03-23T08:18:10;4.07;;;2.70;;
13847;SDS011;6994;49.752;6.094;2024-03-23T08:20:36;7.70;;;3.15;;
13847;SDS011;6994;49.752;6.094;2024-03-23T08:23:05;7.15;;;3.00;;
13847;SDS011;6994;49.752;6.094;2024-03-23T08:25:33;4.72;;;2.83;;
13847;SDS011;6994;49.752;6.094;2024-03-23T08:28:00;4.32;;;2.58;;
13847;SDS011;6994;49.752;6.094;2024-03-23T08:30:28;7.72;;;3.03;;
13847;SDS011;6994;49.752;6.094;2024-03-23T08:32:55;7.22;;;3.72;;
13847;SDS011;6994;49.752;6.094;2024-03-23T08:35:22;7.82;;;3.65;;
13847;SDS011;6994;49.752;6.094;2024-03-23T08:37:49;6.62;;;2.90;;
13847;SDS011;6994;49.752;6.094;2024-03-23T08:40:16;6.87;;;2.90;;
13847;SDS011;6994;49.752;6.094;2024-03-23T08:42:44;6.75;;;3.05;;
13847;SDS011;6994;49.752;6.094;2024-03-23T08:45:11;6.43;;;3.53;;
13847;SDS011;6994;49.752;6.094;2024-03-23T08:47:38;8.05;;;3.50;;
13847;SDS011;6994;49.752;6.094;2024-03-23T08:50:05;9.52;;;3.40;;
13847;SDS011;6994;49.752;6.094;2024-03-23T08:52:33;4.55;;;2.85;;
13847;SDS011;6994;49.752;6.094;2024-03-23T08:55:00;9.27;;;3.65;;
13847;SDS011;6994;49.752;6.094;2024-03-23T08:57:27;8.88;;;4.10;;
13847;SDS011;6994;49.752;6.094;2024-03-23T08:59:54;6.50;;;3.53;;
13847;SDS011;6994;49.752;6.094;2024-03-23T09:02:22;4.15;;;2.90;;
13847;SDS011;6994;49.752;6.094;2024-03-23T09:04:49;8.85;;;4.07;;
13847;SDS011;6994;49.752;6.094;2024-03-23T09:07:16;7.10;;;3.37;;
13847;SDS011;6994;49.752;6.094;2024-03-23T09:09:44;9.18;;;3.35;;
13847;SDS011;6994;49.752;6.094;2024-03-23T09:12:11;5.93;;;3.20;;
13847;SDS011;6994;49.752;6.094;2024-03-23T09:14:38;5.65;;;3.78;;
13847;SDS011;6994;49.752;6.094;2024-03-23T09:17:06;13.00;;;4.00;;
13847;SDS011;6994;49.752;6.094;2024-03-23T09:19:34;12.00;;;3.92;;
13847;SDS011;6994;49.752;6.094;2024-03-23T09:22:02;7.62;;;3.37;;
13847;SDS011;6994;49.752;6.094;2024-03-23T09:24:29;8.77;;;2.80;;
13847;SDS011;6994;49.752;6.094;2024-03-23T09:26:57;9.30;;;3.47;;
13847;SDS011;6994;49.752;6.094;2024-03-23T09:29:25;2.97;;;1.87;;
13847;SDS011;6994;49.752;6.094;2024-03-23T09:31:53;6.37;;;2.12;;
13847;SDS011;6994;49.752;6.094;2024-03-23T09:34:20;5.10;;;2.22;;
13847;SDS011;6994;49.752;6.094;2024-03-23T09:36:47;4.95;;;1.65;;
13847;SDS011;6994;49.752;6.094;2024-03-23T09:39:14;2.95;;;1.42;;
13847;SDS011;6994;49.752;6.094;2024-03-23T09:41:41;4.30;;;1.67;;
13847;SDS011;6994;49.752;6.094;2024-03-23T09:44:09;6.37;;;2.40;;
13847;SDS011;6994;49.752;6.094;2024-03-23T09:46:36;7.03;;;2.30;;
13847;SDS011;6994;49.752;6.094;2024-03-23T09:49:03;6.15;;;2.03;;
13847;SDS011;6994;49.752;6.094;2024-03-23T09:51:30;6.40;;;1.37;;
13847;SDS011;6994;49.752;6.094;2024-03-23T09:53:58;6.68;;;2.00;;
13847;SDS011;6994;49.752;6.094;2024-03-23T09:56:26;5.45;;;1.62;;
13847;SDS011;6994;49.752;6.094;2024-03-23T09:59:00;3.90;;;1.30;;
13847;SDS011;6994;49.752;6.094;2024-03-23T10:01:29;6.40;;;1.40;;
13847;SDS011;6994;49.752;6.094;2024-03-23T10:03:55;1.08;;;0.73;;
13847;SDS011;6994;49.752;6.094;2024-03-23T10:06:23;6.50;;;1.27;;
13847;SDS011;6994;49.752;6.094;2024-03-23T10:08:53;3.15;;;0.90;;
13847;SDS011;6994;49.752;6.094;2024-03-23T10:11:20;2.97;;;0.43;;
13847;SDS011;6994;49.752;6.094;2024-03-23T10:13:47;1.65;;;0.50;;
13847;SDS011;6994;49.752;6.094;2024-03-23T10:16:21;0.10;;;0.10;;
13847;SDS011;6994;49.752;6.094;2024-03-23T10:18:48;0.82;;;0.20;;
13847;SDS011;6994;49.752;6.094;2024-03-23T10:21:15;0.25;;;0.10;;
13847;SDS011;6994;49.752;6.094;2024-03-23T10:23:42;0.47;;;0.10;;
13847;SDS011;6994;49.752;6.094;2024-03-23T10:26:22;0.20;;;0.20;;
13847;SDS011;6994;49.752;6.094;2024-03-23T10:28:55;0.13;;;0.10;;
13847;SDS011;6994;49.752;6.094;2024-03-23T10:31:21;0.03;;;0.00;;
13847;SDS011;6994;49.752;6.094;2024-03-23T10:33:49;0.35;;;0.10;;
13847;SDS011;6994;49.752;6.094;2024-03-23T10:36:17;2.42;;;0.50;;
13847;SDS011;6994;49.752;6.094;2024-03-23T10:38:44;1.45;;;0.10;;
13847;SDS011;6994;49.752;6.094;2024-03-23T10:41:12;1.20;;;0.10;;
13847;SDS011;6994;49.752;6.094;2024-03-23T10:43:40;0.30;;;0.20;;
13847;SDS011;6994;49.752;6.094;2024-03-23T10:46:07;0.95;;;0.37;;
13847;SDS011;6994;49.752;6.094;2024-03-23T10:48:34;1.62;;;0.37;;
13847;SDS011;6994;49.752;6.094;2024-03-23T10:51:01;1.15;;;0.40;;
13847;SDS011;6994;49.752;6.094;2024-03-23T10:53:29;3.10;;;0.55;;
13847;SDS011;6994;49.752;6.094;2024-03-23T10:55:56;1.92;;;0.75;;
13847;SDS011;6994;49.752;6.094;2024-03-23T10:58:29;1.33;;;0.62;;
13847;SDS011;6994;49.752;6.094;2024-03-23T11:00:50;0.77;;;0.60;;
13847;SDS011;6994;49.752;6.094;2024-03-23T11:03:30;1.48;;;0.60;;
13847;SDS011;6994;49.752;6.094;2024-03-23T11:05:57;1.60;;;0.62;;
13847;SDS011;6994;49.752;6.094;2024-03-23T11:08:30;3.20;;;0.95;;
13847;SDS011;6994;49.752;6.094;2024-03-23T11:13:49;4.72;;;1.35;;
13847;SDS011;6994;49.752;6.094;2024-03-23T11:16:25;1.87;;;0.65;;
13847;SDS011;6994;49.752;6.094;2024-03-23T11:18:52;1.40;;;0.62;;
13847;SDS011;6994;49.752;6.094;2024-03-23T11:24:21;2.45;;;0.70;;
13847;SDS011;6994;49.752;6.094;2024-03-23T11:26:48;3.92;;;0.80;;
13847;SDS011;6994;49.752;6.094;2024-03-23T11:29:16;1.85;;;0.65;;
13847;SDS011;6994;49.752;6.094;2024-03-23T11:31:49;2.47;;;0.52;;
13847;SDS011;6994;49.752;6.094;2024-03-23T11:34:16;3.33;;;0.50;;
13847;SDS011;6994;49.752;6.094;2024-03-23T11:36:44;1.52;;;0.55;;
13847;SDS011;6994;49.752;6.094;2024-03-23T11:39:18;1.40;;;0.57;;
13847;SDS011;6994;49.752;6.094;2024-03-23T11:41:48;3.53;;;0.73;;
13847;SDS011;6994;49.752;6.094;2024-03-23T11:44:22;1.23;;;0.40;;
13847;SDS011;6994;49.752;6.094;2024-03-23T11:46:51;2.75;;;0.65;;
13847;SDS011;6994;49.752;6.094;2024-03-23T11:49:24;2.00;;;0.65;;
13847;SDS011;6994;49.752;6.094;2024-03-23T11:51:54;2.30;;;0.52;;
13847;SDS011;6994;49.752;6.094;2024-03-23T11:54:21;1.50;;;0.15;;
13847;SDS011;6994;49.752;6.094;2024-03-23T11:56:58;1.35;;;0.50;;
13847;SDS011;6994;49.752;6.094;2024-03-23T11:59:40;1.42;;;0.40;;
13847;SDS011;6994;49.752;6.094;2024-03-23T12:02:10;2.10;;;0.50;;
13847;SDS011;6994;49.752;6.094;2024-03-23T12:04:37;0.93;;;0.35;;
13847;SDS011;6994;49.752;6.094;2024-03-23T12:07:14;2.40;;;0.57;;
13847;SDS011;6994;49.752;6.094;2024-03-23T12:09:46;1.85;;;0.50;;
13847;SDS011;6994;49.752;6.094;2024-03-23T12:12:16;1.95;;;0.30;;
13847;SDS011;6994;49.752;6.094;2024-03-23T12:14:43;3.50;;;1.25;;
13847;SDS011;6994;49.752;6.094;2024-03-23T12:17:12;2.05;;;0.50;;
13847;SDS011;6994;49.752;6.094;2024-03-23T12:19:46;1.37;;;0.50;;
13847;SDS011;6994;49.752;6.094;2024-03-23T12:22:14;2.08;;;0.40;;
13847;SDS011;6994;49.752;6.094;2024-03-23T12:24:42;0.65;;;0.40;;
13847;SDS011;6994;49.752;6.094;2024-03-23T12:27:10;1.27;;;0.40;;
13847;SDS011;6994;49.752;6.094;2024-03-23T12:29:38;1.65;;;0.57;;
13847;SDS011;6994;49.752;6.094;2024-03-23T12:32:05;1.23;;;0.47;;
13847;SDS011;6994;49.752;6.094;2024-03-23T12:34:32;1.62;;;0.70;;
13847;SDS011;6994;49.752;6.094;2024-03-23T12:36:59;1.48;;;0.60;;
13847;SDS011;6994;49.752;6.094;2024-03-23T12:39:26;0.40;;;0.32;;
13847;SDS011;6994;49.752;6.094;2024-03-23T12:41:54;3.40;;;0.52;;
13847;SDS011;6994;49.752;6.094;2024-03-23T12:44:21;1.20;;;0.40;;
13847;SDS011;6994;49.752;6.094;2024-03-23T12:46:48;0.98;;;0.40;;
13847;SDS011;6994;49.752;6.094;2024-03-23T12:49:15;3.45;;;0.68;;
13847;SDS011;6994;49.752;6.094;2024-03-23T12:51:55;2.22;;;0.52;;
13847;SDS011;6994;49.752;6.094;2024-03-23T12:54:22;1.70;;;0.60;;
13847;SDS011;6994;49.752;6.094;2024-03-23T12:56:49;1.65;;;0.50;;
13847;SDS011;6994;49.752;6.094;2024-03-23T12:59:16;2.97;;;0.62;;
13847;SDS011;6994;49.752;6.094;2024-03-23T13:01:44;1.50;;;0.50;;
13847;SDS011;6994;49.752;6.094;2024-03-23T13:04:11;0.75;;;0.40;;
13847;SDS011;6994;49.752;6.094;2024-03-23T13:06:38;1.90;;;0.55;;
13847;SDS011;6994;49.752;6.094;2024-03-23T13:09:05;1.42;;;0.40;;
13847;SDS011;6994;49.752;6.094;2024-03-23T13:11:32;1.70;;;0.40;;
13847;SDS011;6994;49.752;6.094;2024-03-23T13:13:59;1.87;;;0.90;;
13847;SDS011;6994;49.752;6.094;2024-03-23T13:16:27;0.88;;;0.50;;
13847;SDS011;6994;49.752;6.094;2024-03-23T13:18:54;5.97;;;0.60;;
13847;SDS011;6994;49.752;6.094;2024-03-23T13:21:21;1.55;;;0.47;;
13847;SDS011;6994;49.752;6.094;2024-03-23T13:23:48;1.10;;;0.32;;
13847;SDS011;6994;49.752;6.094;2024-03-23T13:26:15;0.98;;;0.30;;
13847;SDS011;6994;49.752;6.094;2024-03-23T13:28:43;1.70;;;0.65;;
13847;SDS011;6994;49.752;6.094;2024-03-23T13:31:11;0.43;;;0.28;;
13847;SDS011;6994;49.752;6.094;2024-03-23T13:33:39;1.15;;;0.40;;
13847;SDS011;6994;49.752;6.094;2024-03-23T13:36:06;1.58;;;0.43;;
13847;SDS011;6994;49.752;6.094;2024-03-23T13:38:33;0.30;;;0.30;;
13847;SDS011;6994;49.752;6.094;2024-03-23T13:41:01;3.00;;;0.60;;
13847;SDS011;6994;49.752;6.094;2024-03-23T13:43:29;0.20;;;0.20;;
13847;SDS011;6994;49.752;6.094;2024-03-23T13:45:57;0.05;;;0.05;;
13847;SDS011;6994;49.752;6.094;2024-03-23T13:48:26;0.77;;;0.30;;
13847;SDS011;6994;49.752;6.094;2024-03-23T13:53:29;0.32;;;0.25;;
13847;SDS011;6994;49.752;6.094;2024-03-23T13:55:57;2.08;;;0.30;;
13847;SDS011;6994;49.752;6.094;2024-03-23T13:58:25;0.90;;;0.30;;
13847;SDS011;6994;49.752;6.094;2024-03-23T14:00:52;1.27;;;0.30;;
13847;SDS011;6994;49.752;6.094;2024-03-23T14:03:19;2.03;;;0.52;;
13847;SDS011;6994;49.752;6.094;2024-03-23T14:05:47;2.45;;;0.40;;
13847;SDS011;6994;49.752;6.094;2024-03-23T14:08:14;0.30;;;0.28;;
13847;SDS011;6994;49.752;6.094;2024-03-23T14:10:42;0.55;;;0.30;;
13847;SDS011;6994;49.752;6.094;2024-03-23T14:13:09;1.87;;;0.82;;
13847;SDS011;6994;49.752;6.094;2024-03-23T14:15:36;0.20;;;0.20;;
13847;SDS011;6994;49.752;6.094;2024-03-23T14:18:04;1.27;;;0.40;;
13847;SDS011;6994;49.752;6.094;2024-03-23T14:20:31;0.47;;;0.10;;
13847;SDS011;6994;49.752;6.094;2024-03-23T14:22:59;0.75;;;0.10;;
13847;SDS011;6994;49.752;6.094;2024-03-23T14:25:26;1.85;;;0.37;;
13847;SDS011;6994;49.752;6.094;2024-03-23T14:27:54;1.65;;;0.28;;
13847;SDS011;6994;49.752;6.094;2024-03-23T14:30:21;1.25;;;0.43;;
13847;SDS011;6994;49.752;6.094;2024-03-23T14:32:48;0.32;;;0.32;;
13847;SDS011;6994;49.752;6.094;2024-03-23T14:35:16;0.80;;;0.28;;
13847;SDS011;6994;49.752;6.094;2024-03-23T14:37:44;0.65;;;0.20;;
13847;SDS011;6994;49.752;6.094;2024-03-23T14:40:11;0.75;;;0.30;;
13847;SDS011;6994;49.752;6.094;2024-03-23T14:42:38;0.45;;;0.20;;
13847;SDS011;6994;49.752;6.094;2024-03-23T14:45:06;1.33;;;0.40;;
13847;SDS011;6994;49.752;6.094;2024-03-23T14:47:33;0.22;;;0.20;;
13847;SDS011;6994;49.752;6.094;2024-03-23T14:50:00;1.40;;;0.40;;
13847;SDS011;6994;49.752;6.094;2024-03-23T14:52:27;1.98;;;0.20;;
13847;SDS011;6994;49.752;6.094;2024-03-23T14:54:54;0.40;;;0.40;;
13847;SDS011;6994;49.752;6.094;2024-03-23T14:57:22;2.17;;;0.40;;
13847;SDS011;6994;49.752;6.094;2024-03-23T14:59:49;1.75;;;0.73;;
13847;SDS011;6994;49.752;6.094;2024-03-23T15:02:16;1.67;;;0.65;;
13847;SDS011;6994;49.752;6.094;2024-03-23T15:04:43;1.20;;;0.57;;
13847;SDS011;6994;49.752;6.094;2024-03-23T15:07:11;1.25;;;0.28;;
13847;SDS011;6994;49.752;6.094;2024-03-23T15:09:38;2.30;;;0.40;;
13847;SDS011;6994;49.752;6.094;2024-03-23T15:12:05;1.45;;;0.55;;
13847;SDS011;6994;49.752;6.094;2024-03-23T15:14:32;2.62;;;0.60;;
13847;SDS011;6994;49.752;6.094;2024-03-23T15:17:00;2.55;;;0.50;;
13847;SDS011;6994;49.752;6.094;2024-03-23T15:19:28;0.10;;;0.10;;
13847;SDS011;6994;49.752;6.094;2024-03-23T15:21:55;2.17;;;0.70;;
13847;SDS011;6994;49.752;6.094;2024-03-23T15:24:22;1.05;;;0.40;;
13847;SDS011;6994;49.752;6.094;2024-03-23T15:26:50;1.23;;;0.35;;
13847;SDS011;6994;49.752;6.094;2024-03-23T15:29:17;0.90;;;0.30;;
13847;SDS011;6994;49.752;6.094;2024-03-23T15:31:44;1.23;;;0.45;;
13847;SDS011;6994;49.752;6.094;2024-03-23T15:34:11;2.35;;;0.43;;
13847;SDS011;6994;49.752;6.094;2024-03-23T15:36:38;0.88;;;0.77;;
13847;SDS011;6994;49.752;6.094;2024-03-23T15:39:06;0.90;;;0.40;;
13847;SDS011;6994;49.752;6.094;2024-03-23T15:41:33;1.85;;;0.40;;
13847;SDS011;6994;49.752;6.094;2024-03-23T15:44:00;0.68;;;0.25;;
13847;SDS011;6994;49.752;6.094;2024-03-23T15:46:27;0.75;;;0.40;;
13847;SDS011;6994;49.752;6.094;2024-03-23T15:48:54;0.30;;;0.28;;
13847;SDS011;6994;49.752;6.094;2024-03-23T15:51:22;0.77;;;0.35;;
13847;SDS011;6994;49.752;6.094;2024-03-23T15:53:49;0.80;;;0.20;;
13847;SDS011;6994;49.752;6.094;2024-03-23T15:56:16;0.85;;;0.20;;
13847;SDS011;6994;49.752;6.094;2024-03-23T15:58:43;0.20;;;0.20;;
13847;SDS011;6994;49.752;6.094;2024-03-23T16:01:10;0.30;;;0.20;;
13847;SDS011;6994;49.752;6.094;2024-03-23T16:03:38;0.55;;;0.37;;
13847;SDS011;6994;49.752;6.094;2024-03-23T16:06:05;2.08;;;0.40;;
13847;SDS011;6994;49.752;6.094;2024-03-23T16:08:32;2.85;;;0.57;;